KSAN/SAN METAR and TAF weather

Enter ICAO airport designator
Station Type Date Time Source
KSAN METAR 2019/12/07 04:51 UTC NOAA

KSAN 070451Z 36003KT 10SM FEW050 SCT090 BKN250 17/15 A3015 RMK AO2 SLP209 T01670150


Station Type Date Time Source
KSAN Decoded METAR 2019/12/07 04:51 UTC NOAA

SAN DIEGO INTERNATIONAL \LINDBERGH FLD, CA, United States (KSAN) 32-44N 117-11W 12M
Dec 06, 2019 - 11:51 PM EST / 2019.12.07 0451 UTC
Wind: from the N (360 degrees) at 3 MPH (3 KT):0
Visibility: 10 mile(s):0
Sky conditions: mostly cloudy
Temperature: 62.1 F (16.7 C)
Dew Point: 59.0 F (15.0 C)
Relative Humidity: 89%
Pressure (altimeter): 30.15 in. Hg (1020 hPa)
ob: KSAN 070451Z 36003KT 10SM FEW050 SCT090 BKN250 17/15 A3015 RMK AO2 SLP209 T01670150
cycle: 5

Station Type Date Time Source
KSAN TAF 2019/12/07 03:16 UTC NOAA

TAF
AMD KSAN 070310Z 0703/0806 VRB06KT P6SM VCSH BKN040 OVC100

Example: see airport list